sensor_id;sensor_type;location;lat;lon;timestamp;temperature;humidity
19847;DHT22;10084;50.518;8.588;2023-04-28T06:13:38;11.10;91.00
19847;DHT22;10084;50.518;8.588;2023-04-28T06:16:04;11.20;90.90
19847;DHT22;10084;50.518;8.588;2023-04-28T06:18:31;11.20;90.70
19847;DHT22;10084;50.518;8.588;2023-04-28T06:21:00;11.20;90.70
19847;DHT22;10084;50.518;8.588;2023-04-28T06:23:26;11.20;90.70
19847;DHT22;10084;50.518;8.588;2023-04-28T06:25:52;11.20;90.80
19847;DHT22;10084;50.518;8.588;2023-04-28T06:28:18;11.20;90.80
19847;DHT22;10084;50.518;8.588;2023-04-28T06:30:44;11.20;90.80
19847;DHT22;10084;50.518;8.588;2023-04-28T06:33:09;11.10;90.90
19847;DHT22;10084;50.518;8.588;2023-04-28T06:35:35;11.20;91.00
19847;DHT22;10084;50.518;8.588;2023-04-28T06:38:03;11.20;91.00
19847;DHT22;10084;50.518;8.588;2023-04-28T06:40:29;11.20;90.90
19847;DHT22;10084;50.518;8.588;2023-04-28T06:42:56;11.20;90.90
19847;DHT22;10084;50.518;8.588;2023-04-28T06:45:29;11.20;91.00
19847;DHT22;10084;50.518;8.588;2023-04-28T06:47:55;11.20;91.00
19847;DHT22;10084;50.518;8.588;2023-04-28T06:50:22;11.20;91.00
19847;DHT22;10084;50.518;8.588;2023-04-28T06:52:48;11.20;91.10
19847;DHT22;10084;50.518;8.588;2023-04-28T06:55:15;11.10;91.00
19847;DHT22;10084;50.518;8.588;2023-04-28T06:57:42;11.20;91.10
19847;DHT22;10084;50.518;8.588;2023-04-28T07:00:08;11.20;91.20
19847;DHT22;10084;50.518;8.588;2023-04-28T07:02:35;11.20;91.20
19847;DHT22;10084;50.518;8.588;2023-04-28T07:05:01;11.20;91.20
19847;DHT22;10084;50.518;8.588;2023-04-28T07:07:28;11.10;91.20
19847;DHT22;10084;50.518;8.588;2023-04-28T07:09:54;11.10;91.20
19847;DHT22;10084;50.518;8.588;2023-04-28T07:12:20;11.10;91.30
19847;DHT22;10084;50.518;8.588;2023-04-28T07:14:46;11.20;91.30
19847;DHT22;10084;50.518;8.588;2023-04-28T07:17:12;11.20;91.40
19847;DHT22;10084;50.518;8.588;2023-04-28T07:19:38;11.30;91.40
19847;DHT22;10084;50.518;8.588;2023-04-28T07:22:03;11.30;91.40
19847;DHT22;10084;50.518;8.588;2023-04-28T07:24:29;11.40;91.40
19847;DHT22;10084;50.518;8.588;2023-04-28T07:26:55;11.40;91.40
19847;DHT22;10084;50.518;8.588;2023-04-28T07:29:22;11.40;91.50
19847;DHT22;10084;50.518;8.588;2023-04-28T07:31:48;11.40;91.50
19847;DHT22;10084;50.518;8.588;2023-04-28T07:34:14;11.40;91.60
19847;DHT22;10084;50.518;8.588;2023-04-28T07:36:40;11.40;91.60
19847;DHT22;10084;50.518;8.588;2023-04-28T07:39:06;11.40;91.70
19847;DHT22;10084;50.518;8.588;2023-04-28T07:41:36;11.40;91.80
19847;DHT22;10084;50.518;8.588;2023-04-28T07:44:04;11.40;92.10
19847;DHT22;10084;50.518;8.588;2023-04-28T07:46:30;11.40;92.40
19847;DHT22;10084;50.518;8.588;2023-04-28T07:48:56;11.40;92.40
19847;DHT22;10084;50.518;8.588;2023-04-28T07:51:22;11.40;92.40
19847;DHT22;10084;50.518;8.588;2023-04-28T07:53:47;11.30;92.50
19847;DHT22;10084;50.518;8.588;2023-04-28T07:56:13;11.30;92.50
19847;DHT22;10084;50.518;8.588;2023-04-28T07:58:39;11.30;92.60
19847;DHT22;10084;50.518;8.588;2023-04-28T08:01:04;11.30;92.70
19847;DHT22;10084;50.518;8.588;2023-04-28T08:03:30;11.40;92.70
19847;DHT22;10084;50.518;8.588;2023-04-28T08:05:57;11.40;92.70
19847;DHT22;10084;50.518;8.588;2023-04-28T08:08:23;11.40;92.70
19847;DHT22;10084;50.518;8.588;2023-04-28T08:10:49;11.50;92.80
19847;DHT22;10084;50.518;8.588;2023-04-28T08:13:15;11.60;92.80
19847;DHT22;10084;50.518;8.588;2023-04-28T08:15:41;11.60;92.80
19847;DHT22;10084;50.518;8.588;2023-04-28T08:18:07;11.70;92.80
19847;DHT22;10084;50.518;8.588;2023-04-28T08:20:33;11.70;92.80
19847;DHT22;10084;50.518;8.588;2023-04-28T08:22:58;11.80;92.80
19847;DHT22;10084;50.518;8.588;2023-04-28T08:25:24;11.80;92.80
19847;DHT22;10084;50.518;8.588;2023-04-28T08:27:50;11.90;92.80
19847;DHT22;10084;50.518;8.588;2023-04-28T08:30:16;11.90;92.80
19847;DHT22;10084;50.518;8.588;2023-04-28T08:32:42;11.90;92.90
19847;DHT22;10084;50.518;8.588;2023-04-28T08:35:08;11.90;93.10
19847;DHT22;10084;50.518;8.588;2023-04-28T08:37:34;12.00;93.20
19847;DHT22;10084;50.518;8.588;2023-04-28T08:40:00;12.20;93.20
19847;DHT22;10084;50.518;8.588;2023-04-28T08:42:30;12.40;93.10
19847;DHT22;10084;50.518;8.588;2023-04-28T08:44:57;12.50;93.00
19847;DHT22;10084;50.518;8.588;2023-04-28T08:47:34;12.60;92.90
19847;DHT22;10084;50.518;8.588;2023-04-28T08:50:05;12.70;92.80
19847;DHT22;10084;50.518;8.588;2023-04-28T08:52:32;12.80;92.80
19847;DHT22;10084;50.518;8.588;2023-04-28T08:54:59;12.80;92.80
19847;DHT22;10084;50.518;8.588;2023-04-28T08:57:26;12.80;92.80
19847;DHT22;10084;50.518;8.588;2023-04-28T08:59:55;12.90;92.90
19847;DHT22;10084;50.518;8.588;2023-04-28T09:02:21;13.00;93.00
19847;DHT22;10084;50.518;8.588;2023-04-28T09:04:47;13.00;92.90
19847;DHT22;10084;50.518;8.588;2023-04-28T09:07:13;13.10;92.20
19847;DHT22;10084;50.518;8.588;2023-04-28T09:09:39;13.20;92.10
19847;DHT22;10084;50.518;8.588;2023-04-28T09:12:06;13.20;92.10
19847;DHT22;10084;50.518;8.588;2023-04-28T09:14:34;13.20;92.10
19847;DHT22;10084;50.518;8.588;2023-04-28T09:17:00;13.10;92.20
19847;DHT22;10084;50.518;8.588;2023-04-28T09:19:36;13.10;92.20
19847;DHT22;10084;50.518;8.588;2023-04-28T09:22:03;13.10;92.30
19847;DHT22;10084;50.518;8.588;2023-04-28T09:24:32;13.00;92.30
19847;DHT22;10084;50.518;8.588;2023-04-28T09:27:00;13.00;92.30
19847;DHT22;10084;50.518;8.588;2023-04-28T09:29:27;13.00;92.40
19847;DHT22;10084;50.518;8.588;2023-04-28T09:31:53;13.00;92.40
19847;DHT22;10084;50.518;8.588;2023-04-28T09:34:20;13.00;92.60
19847;DHT22;10084;50.518;8.588;2023-04-28T09:36:49;13.10;92.60
19847;DHT22;10084;50.518;8.588;2023-04-28T09:39:27;13.10;92.60
19847;DHT22;10084;50.518;8.588;2023-04-28T09:41:54;13.20;92.50
19847;DHT22;10084;50.518;8.588;2023-04-28T09:44:21;13.20;92.50
19847;DHT22;10084;50.518;8.588;2023-04-28T09:46:49;13.30;92.40
19847;DHT22;10084;50.518;8.588;2023-04-28T09:49:14;13.30;92.30
19847;DHT22;10084;50.518;8.588;2023-04-28T09:51:40;13.40;92.30
19847;DHT22;10084;50.518;8.588;2023-04-28T09:54:06;13.40;92.20
19847;DHT22;10084;50.518;8.588;2023-04-28T09:56:33;13.50;92.20
19847;DHT22;10084;50.518;8.588;2023-04-28T09:59:03;13.50;92.30
19847;DHT22;10084;50.518;8.588;2023-04-28T10:01:36;13.60;92.50
19847;DHT22;10084;50.518;8.588;2023-04-28T10:04:03;13.60;92.60
19847;DHT22;10084;50.518;8.588;2023-04-28T10:06:29;13.70;92.80
19847;DHT22;10084;50.518;8.588;2023-04-28T10:08:58;13.80;93.10
19847;DHT22;10084;50.518;8.588;2023-04-28T10:11:24;14.00;94.40
19847;DHT22;10084;50.518;8.588;2023-04-28T10:13:52;14.20;94.80
19847;DHT22;10084;50.518;8.588;2023-04-28T10:16:18;14.30;95.00
19847;DHT22;10084;50.518;8.588;2023-04-28T10:18:44;14.40;95.00
19847;DHT22;10084;50.518;8.588;2023-04-28T10:21:11;14.50;94.40
19847;DHT22;10084;50.518;8.588;2023-04-28T10:41:07;15.70;99.30
19847;DHT22;10084;50.518;8.588;2023-04-28T10:43:53;15.70;93.60
19847;DHT22;10084;50.518;8.588;2023-04-28T10:56:25;16.00;94.30
19847;DHT22;10084;50.518;8.588;2023-04-28T10:58:52;16.10;95.70
19847;DHT22;10084;50.518;8.588;2023-04-28T11:15:31;17.50;93.70
19847;DHT22;10084;50.518;8.588;2023-04-28T11:18:00;17.80;92.60
19847;DHT22;10084;50.518;8.588;2023-04-28T11:20:27;17.80;93.90
19847;DHT22;10084;50.518;8.588;2023-04-28T11:22:53;18.00;93.00
19847;DHT22;10084;50.518;8.588;2023-04-28T11:25:21;18.30;97.70
